Time;durP1;ratioP1;P1;durP2;ratioP2;P2;SDS_P1;SDS_P2;PMS_P1;PMS_P2;Temp;Humidity;BMP_temperature;BMP_pressure;BME280_temperature;BME280_humidity;BME280_pressure;Samples;Min_cycle;Max_cycle;Signal;HPM_P1;HPM_P2
2022/05/23 00:00:07;;;;;;;5.23;3.23;;;;;;;16.41;100.00;98371.41;4973723;28;20226;-85
2022/05/23 00:02:35;;;;;;;4.80;3.30;;;;;;;16.42;100.00;98363.25;4976313;28;20211;-84
2022/05/23 00:05:04;;;;;;;4.83;3.37;;;;;;;16.35;100.00;98364.84;4970866;28;20214;-84
2022/05/23 00:07:35;;;;;;;5.87;3.37;;;;;;;16.31;100.00;98366.16;4969690;28;20204;-85
2022/05/23 00:10:06;;;;;;;4.40;3.07;;;;;;;16.24;100.00;98367.75;4972847;28;20200;-84
2022/05/23 00:12:37;;;;;;;5.43;3.23;;;;;;;16.14;100.00;98358.97;4970002;28;20207;-84
2022/05/23 00:15:07;;;;;;;5.83;3.33;;;;;;;16.34;100.00;98356.97;4972627;28;20208;-84
2022/05/23 00:17:35;;;;;;;6.40;3.53;;;;;;;16.36;100.00;98357.66;5026214;28;20205;-84
2022/05/23 00:20:06;;;;;;;5.53;3.20;;;;;;;16.37;100.00;98359.34;5048144;28;20232;-84
2022/05/23 00:22:34;;;;;;;4.23;3.20;;;;;;;16.20;100.00;98374.38;5052263;28;20200;-84
2022/05/23 00:25:03;;;;;;;5.67;3.03;;;;;;;16.03;100.00;98379.59;5048868;28;20200;-84
2022/05/23 00:27:31;;;;;;;6.10;3.90;;;;;;;16.14;100.00;98380.34;5047097;28;20280;-84
2022/05/23 00:30:01;;;;;;;5.93;3.57;;;;;;;16.16;100.00;98365.00;5055844;28;20231;-84
2022/05/23 00:35:20;;;;;;;4.97;3.83;;;;;;;16.33;100.00;98344.63;5052768;28;20200;-84
2022/05/23 00:37:52;;;;;;;7.13;3.83;;;;;;;16.49;100.00;98350.06;5052150;28;20193;-84
2022/05/23 00:40:35;;;;;;;4.83;3.70;;;;;;;16.53;100.00;98356.81;5056748;28;20270;-83
2022/05/23 00:43:14;;;;;;;7.17;4.23;;;;;;;16.33;100.00;98349.97;5057129;28;20220;-84
2022/05/23 00:45:48;;;;;;;5.77;3.47;;;;;;;16.36;100.00;98346.97;5054071;28;20220;-84
2022/05/23 00:48:21;;;;;;;4.80;3.37;;;;;;;16.14;100.00;98345.63;5055698;28;20197;-83
2022/05/23 00:50:53;;;;;;;4.13;3.40;;;;;;;15.81;100.00;98360.47;5045747;28;20201;-84
2022/05/23 00:53:29;;;;;;;5.07;3.53;;;;;;;15.88;100.00;98359.72;5050617;28;20204;-83
2022/05/23 00:55:58;;;;;;;5.37;3.73;;;;;;;15.78;100.00;98353.59;5052598;28;20185;-84
2022/05/23 00:58:30;;;;;;;4.60;3.80;;;;;;;15.84;100.00;98347.69;5046868;28;20651;-83
2022/05/23 01:01:05;;;;;;;8.67;4.03;;;;;;;15.91;100.00;98348.72;5053160;28;20219;-84
2022/05/23 01:03:33;;;;;;;10.33;4.00;;;;;;;15.87;100.00;98338.50;5050746;28;20215;-84
2022/05/23 01:06:05;;;;;;;5.33;3.63;;;;;;;15.94;100.00;98335.09;5042624;28;20518;-85
2022/05/23 01:08:35;;;;;;;8.87;4.13;;;;;;;16.01;100.00;98317.44;5046841;28;20211;-83
2022/05/23 01:11:04;;;;;;;6.77;4.00;;;;;;;16.10;100.00;98309.50;5054633;28;20279;-84
2022/05/23 01:13:32;;;;;;;5.93;3.80;;;;;;;15.87;100.00;98317.16;5049781;28;20197;-84
2022/05/23 01:16:02;;;;;;;5.30;3.80;;;;;;;15.74;100.00;98325.53;5050704;28;20216;-83
2022/05/23 01:18:31;;;;;;;4.20;3.73;;;;;;;15.91;100.00;98330.03;5044162;28;20196;-84
2022/05/23 01:21:02;;;;;;;4.57;3.30;;;;;;;15.46;100.00;98320.22;5045343;28;20224;-84
2022/05/23 01:23:38;;;;;;;7.40;3.50;;;;;;;15.41;100.00;98327.81;5052404;28;20218;-84
2022/05/23 01:26:08;;;;;;;7.73;3.80;;;;;;;15.51;100.00;98317.06;5052339;28;20192;-83
2022/05/23 01:28:38;;;;;;;5.37;3.70;;;;;;;15.70;100.00;98308.13;5049458;28;20225;-84
2022/05/23 01:31:07;;;;;;;4.57;3.57;;;;;;;15.85;100.00;98308.47;5050526;28;20284;-84
2022/05/23 01:33:35;;;;;;;6.67;3.50;;;;;;;16.05;100.00;98299.28;5052037;28;20196;-84
2022/05/23 01:36:04;;;;;;;5.27;3.70;;;;;;;16.00;100.00;98289.06;5050676;28;20394;-83
2022/05/23 01:38:32;;;;;;;5.77;4.07;;;;;;;15.98;100.00;98291.03;5054941;28;20199;-84
2022/05/23 01:41:01;;;;;;;5.50;3.37;;;;;;;16.08;100.00;98279.44;5047805;28;20220;-84
2022/05/23 01:43:30;;;;;;;5.47;3.40;;;;;;;16.11;100.00;98271.94;5044127;28;20193;-85
2022/05/23 01:45:59;;;;;;;5.23;3.60;;;;;;;16.18;100.00;98264.16;5048945;28;20247;-84
2022/05/23 01:48:27;;;;;;;6.40;3.70;;;;;;;16.07;100.00;98272.41;5047737;28;20209;-83
2022/05/23 01:50:56;;;;;;;5.33;3.80;;;;;;;15.83;100.00;98278.41;5047965;28;20196;-84
2022/05/23 01:53:26;;;;;;;5.77;3.30;;;;;;;15.77;100.00;98277.16;5048823;28;20655;-83
2022/05/23 01:55:54;;;;;;;6.00;3.63;;;;;;;15.38;100.00;98287.25;5051820;28;20288;-84
2022/05/23 02:01:15;;;;;;;5.77;3.57;;;;;;;15.46;100.00;98266.00;5052774;28;20220;-84
2022/05/23 02:03:46;;;;;;;6.17;3.70;;;;;;;15.49;100.00;98262.19;5052376;28;20328;-84
2022/05/23 02:06:16;;;;;;;6.13;3.77;;;;;;;15.25;100.00;98273.41;5047683;28;20200;-84
2022/05/23 02:08:44;;;;;;;6.60;4.00;;;;;;;15.31;100.00;98268.31;5046444;28;20280;-83
2022/05/23 02:11:12;;;;;;;6.57;3.77;;;;;;;15.31;100.00;98271.00;5044047;28;20201;-85
2022/05/23 02:13:45;;;;;;;5.03;3.60;;;;;;;15.28;100.00;98273.97;5049659;28;20212;-83
2022/05/23 02:16:20;;;;;;;7.57;3.80;;;;;;;15.19;100.00;98266.84;5054908;28;20185;-84
2022/05/23 02:18:49;;;;;;;9.97;4.40;;;;;;;15.15;100.00;98261.00;5049600;28;20220;-84
2022/05/23 02:21:17;;;;;;;5.30;4.07;;;;;;;15.03;100.00;98255.97;5050111;28;20220;-83
2022/05/23 02:23:46;;;;;;;6.10;3.87;;;;;;;15.17;100.00;98244.84;5054186;28;20200;-84
2022/05/23 02:26:14;;;;;;;5.77;4.07;;;;;;;15.06;100.00;98250.38;5049331;28;20200;-84
2022/05/23 02:28:43;;;;;;;6.53;3.80;;;;;;;15.05;100.00;98244.16;5050087;28;20264;-83
2022/05/23 02:31:12;;;;;;;7.30;4.13;;;;;;;15.09;100.00;98231.41;5051703;28;20193;-84
2022/05/23 02:33:42;;;;;;;6.50;3.80;;;;;;;15.08;100.00;98219.91;5048042;28;20208;-84
2022/05/23 02:36:10;;;;;;;6.17;4.00;;;;;;;15.14;100.00;98216.59;5050683;28;20212;-84
2022/05/23 02:38:38;;;;;;;5.30;3.90;;;;;;;15.13;100.00;98219.44;5051459;28;20205;-84
2022/05/23 02:41:06;;;;;;;5.67;4.13;;;;;;;14.81;100.00;98220.75;5046151;28;20224;-84
2022/05/23 02:43:35;;;;;;;6.57;4.10;;;;;;;15.01;100.00;98215.31;5041814;28;20189;-84
2022/05/23 02:46:04;;;;;;;5.70;4.13;;;;;;;14.90;100.00;98216.34;5046328;28;20193;-84
2022/05/23 02:48:32;;;;;;;4.63;4.10;;;;;;;14.91;100.00;98227.84;5050171;28;20197;-84
2022/05/23 02:51:02;;;;;;;5.33;3.77;;;;;;;14.76;100.00;98228.31;5045207;28;20209;-84
2022/05/23 02:53:31;;;;;;;7.53;4.10;;;;;;;14.70;100.00;98220.94;5047570;28;20280;-84
2022/05/23 02:55:59;;;;;;;5.23;3.90;;;;;;;14.78;100.00;98226.38;5049077;28;20189;-84
2022/05/23 02:58:28;;;;;;;5.27;4.00;;;;;;;14.69;100.00;98227.25;5049312;28;20272;-84
2022/05/23 03:00:56;;;;;;;8.70;4.40;;;;;;;14.92;100.00;98237.53;5048694;28;20268;-84
2022/05/23 03:03:23;;;;;;;4.77;4.10;;;;;;;14.76;100.00;98236.31;5041875;28;20208;-84
2022/05/23 03:05:52;;;;;;;5.40;3.90;;;;;;;14.81;100.00;98226.06;5049300;28;20208;-84
2022/05/23 03:08:26;;;;;;;5.90;3.90;;;;;;;15.00;100.00;98225.13;5054428;28;20189;-84
2022/05/23 03:10:57;;;;;;;5.20;3.93;;;;;;;14.90;100.00;98229.69;5054901;28;20208;-84
2022/05/23 03:13:26;;;;;;;9.30;4.00;;;;;;;14.93;100.00;98224.03;5058031;28;20220;-84
2022/05/23 03:15:58;;;;;;;5.33;4.10;;;;;;;15.01;100.00;98215.31;5057692;28;20193;-84
2022/05/23 03:18:29;;;;;;;4.93;3.80;;;;;;;14.95;100.00;98214.06;5043857;28;20258;-84
2022/05/23 03:21:01;;;;;;;6.27;4.13;;;;;;;14.78;100.00;98210.38;5056074;28;20216;-83
2022/05/23 03:29:07;;;;;;;8.13;4.73;;;;;;;14.46;100.00;98208.13;5054659;28;20232;-84
2022/05/23 03:31:35;;;;;;;6.90;4.73;;;;;;;14.62;100.00;98207.50;5054248;28;20201;-84
2022/05/23 03:34:03;;;;;;;7.73;4.43;;;;;;;14.66;100.00;98208.88;5047565;28;20201;-85
2022/05/23 03:36:33;;;;;;;6.77;4.20;;;;;;;14.59;100.00;98205.13;5014506;28;20214;-85
2022/05/23 03:39:04;;;;;;;4.90;4.10;;;;;;;14.71;100.00;98200.44;5015299;28;20239;-84
2022/05/23 03:41:32;;;;;;;6.50;4.10;;;;;;;14.67;100.00;98194.59;5013028;28;20215;-84
2022/05/23 03:44:01;;;;;;;6.13;4.33;;;;;;;14.67;100.00;98185.72;5011308;28;20199;-84
2022/05/23 03:46:29;;;;;;;7.53;4.80;;;;;;;14.79;100.00;98188.06;5012493;28;20294;-85
2022/05/23 03:48:57;;;;;;;7.47;4.70;;;;;;;14.78;100.00;98180.22;5005114;28;20258;-84
2022/05/23 03:51:26;;;;;;;6.10;4.63;;;;;;;14.97;100.00;98171.28;5005874;28;20198;-83
2022/05/23 03:53:54;;;;;;;7.13;4.60;;;;;;;14.91;100.00;98170.03;5019497;28;20193;-84
2022/05/23 03:56:24;;;;;;;6.00;4.23;;;;;;;15.08;100.00;98171.06;5054529;28;20212;-85
2022/05/23 03:58:53;;;;;;;7.93;4.17;;;;;;;15.11;100.00;98157.41;5047636;28;20211;-84
2022/05/23 04:01:25;;;;;;;5.93;4.27;;;;;;;15.06;100.00;98152.53;5015390;28;20276;-84
2022/05/23 04:03:55;;;;;;;8.13;4.80;;;;;;;15.27;100.00;98162.91;5047366;28;20656;-85
2022/05/23 04:06:24;;;;;;;13.03;7.17;;;;;;;15.17;100.00;98162.97;5052173;28;20205;-84
2022/05/23 04:08:54;;;;;;;16.77;13.33;;;;;;;15.04;100.00;98164.31;5052335;28;20252;-85
2022/05/23 04:11:24;;;;;;;10.47;6.70;;;;;;;15.00;100.00;98157.63;5053249;28;20216;-84
2022/05/23 04:13:57;;;;;;;7.60;6.73;;;;;;;15.11;100.00;98157.41;5051711;28;20257;-83
2022/05/23 04:16:28;;;;;;;5.03;4.53;;;;;;;15.11;100.00;98146.72;5051700;28;20228;-85
2022/05/23 04:18:57;;;;;;;7.73;4.77;;;;;;;15.16;100.00;98144.47;5048681;28;20227;-85
2022/05/23 04:21:25;;;;;;;6.63;4.70;;;;;;;15.24;100.00;98149.00;5051296;28;20216;-84
2022/05/23 04:23:54;;;;;;;7.73;4.73;;;;;;;15.28;100.00;98158.41;5051516;28;20232;-85
2022/05/23 04:26:24;;;;;;;5.60;4.43;;;;;;;15.32;100.00;98162.44;5050942;28;20640;-84
2022/05/23 04:28:52;;;;;;;6.47;4.70;;;;;;;15.15;100.00;98164.97;5051432;28;20240;-84
2022/05/23 04:31:21;;;;;;;6.97;4.43;;;;;;;15.16;100.00;98163.97;5052300;28;20274;-84
2022/05/23 04:36:33;;;;;;;5.20;4.60;;;;;;;15.20;100.00;98161.81;5031837;28;20212;-84
2022/05/23 04:39:02;;;;;;;6.83;4.60;;;;;;;15.19;100.00;98165.50;5048135;28;20190;-85
2022/05/23 04:41:32;;;;;;;5.67;4.63;;;;;;;15.26;100.00;98171.06;5051111;28;20300;-85
2022/05/23 04:44:00;;;;;;;5.90;4.70;;;;;;;15.13;100.00;98182.09;4950713;28;20272;-84
2022/05/23 04:46:32;;;;;;;6.77;4.70;;;;;;;14.87;100.00;98180.16;4947904;28;20196;-84
2022/05/23 04:51:46;;;;;;;7.80;4.80;;;;;;;14.87;100.00;98187.31;4954392;28;20200;-84
2022/05/23 04:54:15;;;;;;;7.73;5.27;;;;;;;14.96;100.00;98180.22;4945094;28;20211;-84
2022/05/23 04:56:45;;;;;;;5.80;4.60;;;;;;;14.89;100.00;98185.34;4948352;28;20193;-83
2022/05/23 04:59:13;;;;;;;6.47;4.23;;;;;;;15.08;100.00;98193.22;4951288;29;20221;-85
2022/05/23 05:01:42;;;;;;;7.93;4.20;;;;;;;15.18;100.00;98195.81;4982404;28;20217;-85
2022/05/23 05:04:11;;;;;;;10.20;5.60;;;;;;;14.85;100.00;98194.59;5048343;28;20200;-84
2022/05/23 05:06:39;;;;;;;9.27;6.70;;;;;;;15.12;100.00;98191.91;5050666;28;20224;-84
2022/05/23 05:09:08;;;;;;;6.80;5.07;;;;;;;15.08;100.00;98189.72;5045683;28;20208;-84
2022/05/23 05:11:38;;;;;;;7.20;4.40;;;;;;;15.28;100.00;98185.09;5051066;28;20696;-84
2022/05/23 05:14:08;;;;;;;7.40;4.50;;;;;;;15.43;100.00;98170.19;5047854;28;20212;-84
2022/05/23 05:16:38;;;;;;;6.83;4.77;;;;;;;15.48;100.00;98167.09;5047758;28;20288;-84
2022/05/23 05:19:08;;;;;;;5.73;4.53;;;;;;;15.74;100.00;98166.19;5047982;28;20656;-84
2022/05/23 05:21:37;;;;;;;5.77;4.33;;;;;;;15.79;100.00;98164.88;5048355;28;20367;-84
2022/05/23 05:24:09;;;;;;;6.30;4.10;;;;;;;15.94;100.00;98160.66;5051059;28;20220;-84
2022/05/23 05:26:38;;;;;;;6.73;4.30;;;;;;;16.16;100.00;98159.28;4997665;28;20197;-84
2022/05/23 05:29:07;;;;;;;7.73;4.50;;;;;;;16.19;100.00;98154.44;5051960;28;20229;-85
2022/05/23 05:31:42;;;;;;;7.67;4.23;;;;;;;16.39;100.00;98146.19;5047547;28;20189;-83
2022/05/23 05:34:14;;;;;;;5.67;4.33;;;;;;;16.49;100.00;98139.72;5048674;28;20192;-85
2022/05/23 05:36:47;;;;;;;8.13;4.83;;;;;;;16.51;100.00;98140.44;5050519;28;20216;-85
2022/05/23 05:39:21;;;;;;;5.93;4.33;;;;;;;16.65;100.00;98125.59;5046013;28;20205;-84
2022/05/23 05:41:58;;;;;;;7.30;4.50;;;;;;;16.58;100.00;98124.56;5055319;28;20651;-84
2022/05/23 05:44:34;;;;;;;7.93;4.87;;;;;;;16.63;100.00;98113.41;5047829;28;20216;-84
2022/05/23 05:47:08;;;;;;;7.33;4.40;;;;;;;16.50;100.00;98120.03;5050372;28;20193;-84
2022/05/23 05:49:55;;;;;;;7.03;4.73;;;;;;;16.51;100.00;98096.81;5051457;28;20200;-84
2022/05/23 05:52:27;;;;;;;7.27;4.50;;;;;;;16.56;100.00;98095.31;5050528;28;20228;-83
2022/05/23 05:54:56;;;;;;;8.57;5.00;;;;;;;16.36;100.00;98088.56;5051362;28;20216;-83
2022/05/23 05:57:26;;;;;;;5.90;4.53;;;;;;;16.43;100.00;98073.56;5055133;28;20219;-85
2022/05/23 05:59:56;;;;;;;5.87;4.40;;;;;;;16.44;100.00;98074.41;5050309;28;20204;-84
2022/05/23 06:02:24;;;;;;;9.00;4.53;;;;;;;16.41;100.00;98069.41;5047030;28;20224;-84
2022/05/23 06:04:56;;;;;;;9.27;4.53;;;;;;;16.44;100.00;98051.19;5055198;28;20197;-84
2022/05/23 06:13:05;;;;;;;6.87;4.13;;;;;;;16.64;100.00;98035.69;5057259;28;20197;-84
2022/05/23 06:15:36;;;;;;;5.90;4.40;;;;;;;16.74;100.00;98030.22;5060579;28;20208;-82
2022/05/23 06:18:08;;;;;;;6.13;4.17;;;;;;;16.77;100.00;98020.03;5060966;28;20201;-85
2022/05/23 06:20:37;;;;;;;5.87;4.73;;;;;;;16.76;100.00;98017.53;5058060;28;20241;-84
2022/05/23 06:23:05;;;;;;;5.13;4.30;;;;;;;16.97;100.00;98011.69;5057524;28;20223;-84
2022/05/23 06:25:34;;;;;;;5.90;4.60;;;;;;;17.11;100.00;98003.00;5051287;28;20196;-84
2022/05/23 06:28:05;;;;;;;7.07;4.43;;;;;;;17.27;100.00;98002.13;5057418;28;20637;-83
2022/05/23 06:30:35;;;;;;;5.77;4.10;;;;;;;17.54;100.00;97988.38;5056961;28;20204;-84
2022/05/23 06:33:05;;;;;;;6.47;4.00;;;;;;;17.61;100.00;97978.66;5053239;28;20196;-84
2022/05/23 06:35:35;;;;;;;5.20;4.20;;;;;;;17.63;100.00;97976.66;5045928;28;20232;-85
2022/05/23 06:38:03;;;;;;;6.57;3.77;;;;;;;17.76;100.00;97965.44;5049169;28;20211;-85
2022/05/23 06:40:31;;;;;;;5.90;4.33;;;;;;;17.56;100.00;97959.59;5050652;28;20197;-84
2022/05/23 06:43:01;;;;;;;7.40;3.90;;;;;;;17.83;100.00;97947.66;5048163;28;20209;-84
2022/05/23 06:45:31;;;;;;;5.33;4.07;;;;;;;17.92;100.00;97946.59;5049963;28;20193;-84
2022/05/23 06:48:00;;;;;;;8.47;3.87;;;;;;;18.02;100.00;97939.19;4992809;28;20205;-84
2022/05/23 06:50:28;;;;;;;7.23;3.83;;;;;;;18.03;100.00;97930.13;4992537;28;20211;-86
2022/05/23 06:52:57;;;;;;;4.23;3.40;;;;;;;18.01;100.00;97924.13;4995666;28;20199;-85
2022/05/23 06:55:25;;;;;;;6.03;3.50;;;;;;;18.03;100.00;97922.09;4990202;28;20278;-84
2022/05/23 06:57:54;;;;;;;6.07;3.70;;;;;;;17.92;100.00;97911.78;4993824;28;20653;-84
2022/05/23 07:00:24;;;;;;;6.00;3.87;;;;;;;17.87;100.00;97906.13;4986103;28;20610;-84
2022/05/23 07:02:53;;;;;;;6.07;3.30;;;;;;;17.82;100.00;97904.97;4957064;29;20220;-84
2022/05/23 07:13:40;;;;;;;5.03;3.43;;;;;;;17.83;100.00;97887.88;5015734;28;20281;-83
2022/05/23 07:16:11;;;;;;;7.97;3.80;;;;;;;17.90;100.00;97889.69;5011702;28;20198;-83
2022/05/23 07:18:40;;;;;;;9.80;3.77;;;;;;;17.94;100.00;97903.56;5007147;28;20687;-84
2022/05/23 07:21:10;;;;;;;5.77;3.27;;;;;;;17.90;100.00;97927.19;5033462;28;20193;-84
2022/05/23 07:23:40;;;;;;;6.70;3.70;;;;;;;17.43;100.00;97954.78;5022188;28;20217;-84
2022/05/23 07:26:15;;;;;;;4.53;3.67;;;;;;;17.59;100.00;97966.47;4989459;28;20195;-83
2022/05/23 07:28:44;;;;;;;6.00;3.47;;;;;;;17.80;100.00;97972.09;4995329;28;20222;-85
2022/05/23 07:31:13;;;;;;;7.67;3.87;;;;;;;17.38;100.00;97993.78;4991014;28;20206;-84
2022/05/23 07:33:42;;;;;;;8.10;3.77;;;;;;;17.25;100.00;97996.13;4993699;28;20643;-85
2022/05/23 07:36:12;;;;;;;5.07;3.43;;;;;;;17.48;100.00;97973.03;4988138;28;20303;-84
2022/05/23 07:38:41;;;;;;;5.33;3.77;;;;;;;17.43;100.00;97965.47;4993097;28;20195;-84
2022/05/23 07:41:11;;;;;;;5.63;3.60;;;;;;;17.36;100.00;97967.16;4990380;28;20206;-84
2022/05/23 07:43:41;;;;;;;5.77;4.03;;;;;;;17.64;100.00;97964.91;5007342;28;20228;-84
2022/05/23 07:46:13;;;;;;;4.57;3.60;;;;;;;17.88;100.00;97968.56;5053839;28;20201;-85
2022/05/23 07:48:43;;;;;;;7.23;4.63;;;;;;;17.96;100.00;97963.19;5057248;28;20200;-84
2022/05/23 07:51:14;;;;;;;5.50;4.27;;;;;;;18.14;100.00;97947.66;5049803;28;20225;-84
2022/05/23 08:02:03;;;;;;;6.23;3.80;;;;;;;17.83;100.00;97968.25;5058944;28;20192;-85
2022/05/23 08:04:32;;;;;;;5.53;3.90;;;;;;;17.72;100.00;97977.50;5051080;28;20221;-84
2022/05/23 08:07:07;;;;;;;5.03;3.60;;;;;;;17.71;100.00;97981.19;5053346;28;20208;-84
2022/05/23 08:09:36;;;;;;;5.27;3.63;;;;;;;17.66;100.00;97975.47;5052867;28;20632;-84
2022/05/23 08:12:07;;;;;;;5.50;3.77;;;;;;;18.06;100.00;97976.38;5056130;28;20377;-84
2022/05/23 08:14:35;;;;;;;6.00;3.80;;;;;;;17.87;100.00;97966.91;5052695;28;20197;-84
2022/05/23 08:17:05;;;;;;;5.93;3.70;;;;;;;18.13;100.00;97972.78;5045586;28;20197;-84
2022/05/23 08:19:33;;;;;;;6.03;3.60;;;;;;;17.87;100.00;97975.78;5056113;28;20201;-85
2022/05/23 08:22:07;;;;;;;5.90;4.00;;;;;;;17.57;100.00;97977.34;5050760;28;20200;-84
2022/05/23 08:24:35;;;;;;;5.97;4.03;;;;;;;17.46;100.00;97977.69;5053311;28;20231;-84
2022/05/23 08:27:04;;;;;;;6.60;4.00;;;;;;;17.55;100.00;97976.66;5047599;28;20189;-84
2022/05/23 08:29:33;;;;;;;8.90;4.07;;;;;;;17.85;100.00;97971.56;5046869;28;20236;-84
2022/05/23 08:32:04;;;;;;;6.93;3.57;;;;;;;18.11;100.00;97966.78;5051819;28;20205;-84
2022/05/23 08:34:32;;;;;;;5.60;3.63;;;;;;;17.98;100.00;97963.84;5049575;28;20201;-84
2022/05/23 08:37:00;;;;;;;6.83;3.97;;;;;;;17.86;100.00;97970.59;5048026;28;20212;-84
2022/05/23 08:39:31;;;;;;;6.47;3.77;;;;;;;18.02;100.00;97975.88;5055501;28;20193;-84
2022/05/23 08:42:06;;;;;;;4.47;3.57;;;;;;;18.00;100.00;97965.31;4995671;28;20197;-84
2022/05/23 08:44:44;;;;;;;7.33;3.90;;;;;;;18.09;100.00;97966.13;5053180;28;20216;-84
2022/05/23 08:47:21;;;;;;;4.97;3.50;;;;;;;18.30;100.00;97973.56;5051293;28;20185;-84
2022/05/23 08:50:00;;;;;;;5.57;3.83;;;;;;;18.49;100.00;97967.72;5056366;28;20193;-85
2022/05/23 08:52:34;;;;;;;5.07;3.53;;;;;;;18.67;100.00;97959.44;5054114;28;20193;-85
2022/05/23 08:55:11;;;;;;;4.93;3.47;;;;;;;18.65;100.00;97966.84;5054859;28;20192;-84
2022/05/23 08:57:43;;;;;;;4.20;3.33;;;;;;;18.80;100.00;97964.19;5051224;28;20204;-84
2022/05/23 09:00:15;;;;;;;4.63;3.23;;;;;;;18.72;100.00;97959.75;5051283;28;20276;-84
2022/05/23 09:02:49;;;;;;;6.00;3.77;;;;;;;18.66;100.00;97964.97;5054530;28;20197;-84
2022/05/23 09:05:20;;;;;;;6.13;3.73;;;;;;;18.67;100.00;97967.47;5051915;28;20307;-84
2022/05/23 09:08:13;;;;;;;5.60;3.60;;;;;;;18.89;100.00;97960.44;5054542;28;20212;-84
2022/05/23 09:10:54;;;;;;;6.50;3.30;;;;;;;18.70;100.00;97969.78;5051476;28;20203;-84
2022/05/23 09:13:27;;;;;;;5.47;3.40;;;;;;;18.84;100.00;97952.09;5047123;28;20264;-84
2022/05/23 09:16:03;;;;;;;6.83;3.70;;;;;;;18.65;100.00;97948.06;5018303;28;20276;-84
2022/05/23 09:18:41;;;;;;;4.33;3.57;;;;;;;18.46;100.00;97946.66;5054209;28;20198;-84
2022/05/23 09:21:10;;;;;;;4.47;3.37;;;;;;;18.69;100.00;97943.16;5044252;28;20196;-85
2022/05/23 09:23:45;;;;;;;5.23;3.30;;;;;;;18.61;100.00;97944.00;5048924;28;20213;-84
2022/05/23 09:26:21;;;;;;;4.63;3.50;;;;;;;18.59;100.00;97932.63;5032101;28;20267;-84
2022/05/23 09:28:52;;;;;;;7.27;3.53;;;;;;;18.70;100.00;97937.59;5032012;28;20221;-84
2022/05/23 09:31:31;;;;;;;4.17;3.10;;;;;;;18.74;100.00;97943.47;4990882;28;20195;-84
2022/05/23 09:34:00;;;;;;;4.07;3.40;;;;;;;18.74;100.00;97930.88;4989263;28;20222;-84
2022/05/23 09:36:32;;;;;;;4.37;3.40;;;;;;;18.70;100.00;97934.94;4983817;28;20219;-84
2022/05/23 09:39:04;;;;;;;5.20;3.40;;;;;;;19.02;100.00;97939.19;4986726;28;20199;-85
2022/05/23 09:47:50;;;;;;;4.63;3.40;;;;;;;19.32;100.00;97902.50;5008493;28;20206;-84
2022/05/23 09:50:37;;;;;;;7.37;4.03;;;;;;;19.39;100.00;97902.56;5012673;28;20233;-84
2022/05/23 09:53:19;;;;;;;5.67;3.53;;;;;;;19.54;100.00;97906.09;5007969;28;20202;-84
2022/05/23 09:55:49;;;;;;;4.93;3.53;;;;;;;19.39;100.00;97905.25;5011936;28;20190;-84
2022/05/23 09:58:32;;;;;;;4.30;3.13;;;;;;;19.55;100.00;97904.25;5011552;28;20206;-85
2022/05/23 10:01:07;;;;;;;7.00;3.30;;;;;;;19.64;100.00;97901.31;5011886;28;20281;-84
2022/05/23 10:03:38;;;;;;;4.77;3.20;;;;;;;19.41;100.00;97906.75;5048895;28;20235;-84
2022/05/23 10:06:10;;;;;;;6.10;3.37;;;;;;;19.67;100.00;97916.22;5048236;28;20201;-84
2022/05/23 10:08:43;;;;;;;5.13;3.20;;;;;;;19.68;100.00;97902.59;5046823;28;20201;-84
2022/05/23 10:11:29;;;;;;;4.97;3.00;;;;;;;19.85;100.00;97897.84;5050500;28;20205;-84
2022/05/23 10:14:01;;;;;;;4.43;3.10;;;;;;;19.95;100.00;97895.69;5053462;28;20292;-84
2022/05/23 10:16:31;;;;;;;8.30;3.50;;;;;;;19.94;100.00;97894.03;5049554;28;20201;-85
2022/05/23 10:19:02;;;;;;;5.30;3.00;;;;;;;20.10;100.00;97886.78;5054919;28;20201;-83
2022/05/23 10:21:34;;;;;;;5.40;3.03;;;;;;;20.29;100.00;97875.41;5050576;28;20200;-83
2022/05/23 10:24:09;;;;;;;5.27;3.20;;;;;;;20.45;100.00;97879.72;5055413;28;20212;-84
2022/05/23 10:26:45;;;;;;;4.53;3.20;;;;;;;20.41;100.00;97881.09;5052936;28;20197;-83
2022/05/23 10:29:22;;;;;;;3.67;2.87;;;;;;;20.83;100.00;97880.25;5052809;28;20232;-84
2022/05/23 10:31:56;;;;;;;3.57;2.90;;;;;;;21.02;100.00;97867.97;5056886;28;20193;-84
2022/05/23 10:34:39;;;;;;;4.60;2.87;;;;;;;21.34;100.00;97867.41;5057467;28;20228;-83
2022/05/23 10:37:11;;;;;;;5.90;3.83;;;;;;;21.83;100.00;97854.78;5053444;28;20296;-84
2022/05/23 10:42:36;;;;;;;5.80;3.50;;;;;;;22.49;100.00;97849.59;5056317;28;20193;-84
2022/05/23 10:45:23;;;;;;;6.67;3.30;;;;;;;22.64;100.00;97847.50;5053924;28;20235;-83
2022/05/23 10:48:35;;;;;;;5.73;3.43;;;;;;;22.52;100.00;97850.00;5051247;28;20250;-84
2022/05/23 10:51:12;;;;;;;4.65;3.30;;;;;;;22.80;100.00;97844.41;5055257;28;20208;-84
2022/05/23 10:53:57;;;;;;;4.57;2.90;;;;;;;23.14;100.00;97834.41;5050194;28;20251;-84
2022/05/23 10:56:37;;;;;;;4.95;3.00;;;;;;;23.61;100.00;97822.44;5054791;28;20732;-84
2022/05/23 10:59:09;;;;;;;7.38;3.28;;;;;;;23.68;100.00;97819.72;5053462;28;20199;-85
2022/05/23 11:01:56;;;;;;;5.30;3.50;;;;;;;23.81;100.00;97818.84;5046659;28;20197;-85
2022/05/23 11:04:46;;;;;;;4.90;3.80;;;;;;;23.89;100.00;97815.88;5053812;28;20304;-84
2022/05/23 11:07:31;;;;;;;5.18;3.15;;;;;;;24.40;100.00;97814.97;5053694;28;20196;-84
2022/05/23 11:10:09;;;;;;;5.55;3.33;;;;;;;24.68;100.00;97817.25;5051289;28;20208;-84
2022/05/23 11:13:08;;;;;;;4.78;3.22;;;;;;;24.89;100.00;97797.88;5056128;28;20200;-83
2022/05/23 11:15:46;;;;;;;6.28;3.72;;;;;;;24.69;100.00;97798.06;5017541;28;20227;-84
2022/05/23 11:18:27;;;;;;;5.63;3.10;;;;;;;24.87;100.00;97788.31;5048580;28;20193;-84
2022/05/23 11:21:02;;;;;;;4.47;3.05;;;;;;;24.83;100.00;97791.50;5050042;28;20193;-83
2022/05/23 11:23:37;;;;;;;4.07;3.03;;;;;;;25.01;100.00;97782.56;5056335;28;20193;-85
2022/05/23 11:26:11;;;;;;;4.88;2.90;;;;;;;24.66;100.00;97776.03;5053326;28;20216;-84
2022/05/23 11:34:35;;;;;;;5.80;2.97;;;;;;;25.14;100.00;97761.81;5052761;28;20196;-84
2022/05/23 11:37:42;;;;;;;3.70;2.70;;;;;;;25.15;100.00;97758.06;5051548;28;20189;-84
2022/05/23 11:40:04;;;;;;;5.38;3.00;;;;;;;25.15;100.00;97756.19;5055978;28;20201;-84
2022/05/23 11:42:38;;;;;;;5.35;2.83;;;;;;;25.51;100.00;97749.09;5052075;28;20219;-84
2022/05/23 11:49:00;;;;;;;4.07;2.75;;;;;;;25.61;100.00;97728.50;5049952;28;20656;-83
2022/05/23 11:51:41;;;;;;;4.78;3.20;;;;;;;25.48;100.00;97728.69;5051220;28;20193;-83
2022/05/23 11:54:12;;;;;;;4.90;2.60;;;;;;;25.84;100.00;97722.34;5055505;28;20189;-84
2022/05/23 11:57:10;;;;;;;4.68;2.90;;;;;;;24.98;100.00;97720.69;5052575;28;20280;-83
2022/05/23 12:00:02;;;;;;;6.00;3.10;;;;;;;24.92;100.00;97710.75;5054973;28;20279;-83
2022/05/23 12:02:33;;;;;;;3.42;2.40;;;;;;;24.78;100.00;97701.94;5055143;28;20272;-84
2022/05/23 12:05:31;;;;;;;4.00;3.00;;;;;;;24.47;100.00;97686.63;5052631;28;20243;-83
2022/05/23 12:08:26;;;;;;;8.25;3.58;;;;;;;24.39;100.00;97684.22;5047770;28;20280;-83
2022/05/23 12:10:58;;;;;;;4.88;2.97;;;;;;;24.59;100.00;97684.00;5048093;28;20227;-84
2022/05/23 12:13:41;;;;;;;6.40;2.90;;;;;;;24.64;100.00;97677.94;5052177;28;20644;-84
2022/05/23 12:16:47;;;;;;;5.28;3.25;;;;;;;24.61;100.00;97675.66;5047978;28;20196;-86
2022/05/23 12:19:49;;;;;;;3.38;2.70;;;;;;;24.69;100.00;97675.38;5052829;28;20197;-84
2022/05/23 12:22:39;;;;;;;3.90;2.80;;;;;;;24.53;100.00;97676.81;5055302;28;20193;-84
2022/05/23 12:25:24;;;;;;;5.22;2.75;;;;;;;24.45;100.00;97663.56;5047052;28;20296;-85
2022/05/23 12:28:20;;;;;;;5.10;2.90;;;;;;;24.43;100.00;97663.78;5052184;28;20200;-84
2022/05/23 12:31:16;;;;;;;4.78;2.80;;;;;;;24.40;100.00;97639.84;5048998;28;20201;-83
2022/05/23 12:33:51;;;;;;;6.47;3.00;;;;;;;24.58;100.00;97633.63;5051797;28;20205;-83
2022/05/23 12:36:22;;;;;;;7.03;3.03;;;;;;;24.74;100.00;97641.16;5054917;28;20273;-84
2022/05/23 12:39:02;;;;;;;6.13;2.95;;;;;;;24.44;100.00;97630.25;5052429;28;20197;-84
2022/05/23 12:42:01;;;;;;;5.03;2.58;;;;;;;24.45;100.00;97633.78;5043138;28;20211;-85
2022/05/23 12:45:04;;;;;;;5.22;3.20;;;;;;;24.31;100.00;97635.78;5054454;28;20208;-85
2022/05/23 12:47:56;;;;;;;5.65;2.88;;;;;;;24.41;100.00;97637.97;5051764;28;20679;-84